createdAt,value
2023-10-11T00:00:46.809Z,100699.56
2023-10-11T00:03:18.008Z,100697.75
2023-10-11T00:05:48.527Z,100692.31
2023-10-11T00:08:17.871Z,100692.28
2023-10-11T00:10:50.860Z,100696.69
2023-10-11T00:13:18.936Z,100700.22
2023-10-11T00:15:50.663Z,100701.06
2023-10-11T00:18:20.863Z,100707.31
2023-10-11T00:20:58.388Z,100709.97
2023-10-11T00:23:28.265Z,100701.06
2023-10-11T00:26:00.119Z,100686.72
2023-10-11T00:28:32.840Z,100692.94
2023-10-11T00:31:02.964Z,100694.72
2023-10-11T00:33:38.809Z,100687.59
2023-10-11T00:36:09.370Z,100680.50
2023-10-11T00:38:48.822Z,100681.41
2023-10-11T00:41:21.291Z,100681.50
2023-10-11T00:43:52.833Z,100687.75
2023-10-11T00:46:23.928Z,100676.22
2023-10-11T00:48:56.381Z,100678.94
2023-10-11T00:51:31.733Z,100686.13
2023-10-11T00:54:02.347Z,100668.38
2023-10-11T00:56:33.232Z,100677.34
2023-10-11T00:59:05.488Z,100671.19
2023-10-11T01:01:34.613Z,100673.00
2023-10-11T01:04:03.843Z,100669.47
2023-10-11T01:06:35.700Z,100665.09
2023-10-11T01:09:10.036Z,100658.94
2023-10-11T01:11:38.029Z,100652.75
2023-10-11T01:14:06.497Z,100658.97
2023-10-11T01:16:36.592Z,100650.13
2023-10-11T01:19:09.087Z,100650.19
2023-10-11T01:21:38.327Z,100656.41
2023-10-11T01:24:09.972Z,100652.91
2023-10-11T01:26:38.160Z,100649.38
2023-10-11T01:29:07.214Z,100646.75
2023-10-11T01:31:35.942Z,100647.69
2023-10-11T01:34:05.085Z,100653.91
2023-10-11T01:36:33.412Z,100651.22
2023-10-11T01:39:07.876Z,100645.00
2023-10-11T01:41:37.649Z,100637.03
2023-10-11T01:44:08.318Z,100642.41
2023-10-11T01:46:37.511Z,100640.59
2023-10-11T01:49:06.766Z,100632.56
2023-10-11T01:51:39.854Z,100625.41
2023-10-11T01:54:10.984Z,100626.22
2023-10-11T01:56:40.144Z,100616.47
2023-10-11T01:59:08.498Z,100611.09
2023-10-11T02:01:42.154Z,100616.44
2023-10-11T02:04:18.288Z,100614.63
2023-10-11T02:06:49.356Z,100617.22
2023-10-11T02:09:22.215Z,100616.25
2023-10-11T02:11:53.980Z,100610.84
2023-10-11T02:14:23.852Z,100600.03
2023-10-11T02:16:54.370Z,100603.50
2023-10-11T02:19:24.582Z,100598.94
2023-10-11T02:21:55.112Z,100590.88
2023-10-11T02:24:27.415Z,100592.56
2023-10-11T02:26:56.272Z,100596.88
2023-10-11T02:29:26.485Z,100588.78
2023-10-11T02:31:55.879Z,100588.66
2023-10-11T02:34:24.442Z,100585.94
2023-10-11T02:36:57.532Z,100591.22
2023-10-11T02:39:33.225Z,100583.19
2023-10-11T02:42:01.756Z,100577.78
2023-10-11T02:44:30.027Z,100590.13
2023-10-11T02:47:00.334Z,100580.25
2023-10-11T02:49:33.287Z,100582.03
2023-10-11T02:52:07.294Z,100577.50
2023-10-11T02:54:40.167Z,100585.50
2023-10-11T02:57:09.979Z,100582.81
2023-10-11T02:59:38.220Z,100573.88
2023-10-11T03:02:06.948Z,100571.16
2023-10-11T03:04:40.240Z,100569.31
2023-10-11T03:07:14.121Z,100569.28
2023-10-11T03:09:43.848Z,100575.47
2023-10-11T03:12:19.873Z,100562.09
2023-10-11T03:14:48.636Z,100565.72
2023-10-11T03:17:17.093Z,100557.75
2023-10-11T03:19:46.279Z,100559.59
2023-10-11T03:22:20.835Z,100562.31
2023-10-11T03:24:55.393Z,100563.28
2023-10-11T03:27:25.357Z,100558.84
2023-10-11T03:29:54.765Z,100565.06
2023-10-11T03:32:26.318Z,100541.91
2023-10-11T03:34:54.784Z,100548.97
2023-10-11T03:37:22.646Z,100555.16
2023-10-11T03:39:57.697Z,100553.41
2023-10-11T03:42:46.713Z,100550.75
2023-10-11T03:45:14.732Z,100556.06
2023-10-11T03:47:44.308Z,100551.66
2023-10-11T03:50:13.363Z,100556.13
2023-10-11T03:52:42.407Z,100556.13
2023-10-11T03:55:11.801Z,100549.84
2023-10-11T03:57:43.081Z,100554.28
2023-10-11T04:00:26.130Z,100549.84
2023-10-11T04:02:58.288Z,100548.97
2023-10-11T04:05:30.349Z,100546.31
2023-10-11T04:08:00.302Z,100536.47
2023-10-11T04:10:40.147Z,100538.22
2023-10-11T04:13:10.876Z,100540.88
2023-10-11T04:15:41.772Z,100547.09
2023-10-11T04:18:17.062Z,100552.44
2023-10-11T04:20:52.543Z,100549.75
2023-10-11T04:23:25.793Z,100546.16
2023-10-11T04:25:56.629Z,100546.94
2023-10-11T04:28:25.339Z,100549.63
2023-10-11T04:31:13.161Z,100545.13
2023-10-11T04:33:45.607Z,100550.44
2023-10-11T04:36:13.401Z,100545.97
2023-10-11T04:38:41.184Z,100541.53
2023-10-11T04:41:19.683Z,100539.72
2023-10-11T04:43:52.307Z,100539.75
2023-10-11T04:46:28.510Z,100535.31
2023-10-11T04:49:09.169Z,100536.22
2023-10-11T04:51:41.094Z,100530.88
2023-10-11T04:54:14.826Z,100518.41
2023-10-11T04:56:58.092Z,100522.88
2023-10-11T04:59:37.776Z,100522.88
2023-10-11T05:02:16.620Z,100508.59
2023-10-11T05:04:45.745Z,100512.16
2023-10-11T05:07:15.477Z,100513.88
2023-10-11T05:09:45.451Z,100514.72
2023-10-11T05:12:20.753Z,100503.16
2023-10-11T05:15:08.873Z,100504.94
2023-10-11T05:17:42.981Z,100493.28
2023-10-11T05:20:46.300Z,100495.91
2023-10-11T05:23:15.071Z,100495.91
2023-10-11T05:25:57.735Z,100481.66
2023-10-11T05:28:31.528Z,100484.38
2023-10-11T05:31:19.301Z,100487.09
2023-10-11T05:33:59.373Z,100494.28
2023-10-11T05:36:49.505Z,100497.06
2023-10-11T05:39:34.749Z,100497.06
2023-10-11T05:42:20.367Z,100501.53
2023-10-11T05:45:07.430Z,100493.56
2023-10-11T05:47:52.878Z,100495.41
2023-10-11T05:50:39.209Z,100497.22
2023-10-11T05:53:08.987Z,100495.50
2023-10-11T05:55:38.309Z,100500.88
2023-10-11T05:58:06.459Z,100502.72
2023-10-11T06:00:39.341Z,100511.66
2023-10-11T06:03:07.731Z,100516.13
2023-10-11T06:05:41.127Z,100509.94
2023-10-11T06:08:16.940Z,100511.75
2023-10-11T06:10:45.093Z,100521.47
2023-10-11T06:13:16.323Z,100514.31
2023-10-11T06:16:00.887Z,100510.78
2023-10-11T06:18:41.216Z,100519.72
2023-10-11T06:21:20.214Z,100517.94
2023-10-11T06:23:49.803Z,100529.50
2023-10-11T06:26:35.587Z,100529.44
2023-10-11T06:29:05.446Z,100531.13
2023-10-11T06:31:40.420Z,100529.31
2023-10-11T06:34:16.708Z,100522.13
2023-10-11T06:36:49.775Z,100518.44
2023-10-11T06:39:51.106Z,100514.84
2023-10-11T06:42:23.273Z,100515.63
2023-10-11T06:44:53.438Z,100520.84
2023-10-11T06:47:23.539Z,100521.72
2023-10-11T06:49:55.525Z,100527.03
2023-10-11T06:52:27.421Z,100522.56
2023-10-11T06:55:15.467Z,100514.50
2023-10-11T06:57:46.648Z,100520.75
2023-10-11T07:00:23.280Z,100526.06
2023-10-11T07:02:57.102Z,100527.84
2023-10-11T07:05:27.096Z,100529.53
2023-10-11T07:07:56.749Z,100532.16
2023-10-11T07:10:31.166Z,100524.91
2023-10-11T07:13:06.141Z,100525.69
2023-10-11T07:15:39.927Z,100517.47
2023-10-11T07:18:11.919Z,100513.69
2023-10-11T07:20:59.401Z,100512.59
2023-10-11T07:23:36.501Z,100523.06
2023-10-11T07:26:26.268Z,100524.66
2023-10-11T07:28:54.214Z,100503.03
2023-10-11T07:31:23.976Z,100511.78
2023-10-11T07:33:56.905Z,100500.91
2023-10-11T07:36:27.942Z,100506.06
2023-10-11T07:38:57.829Z,100495.19
2023-10-11T07:41:29.776Z,100493.25
2023-10-11T07:43:58.379Z,100494.91
2023-10-11T07:46:26.425Z,100496.53
2023-10-11T07:49:02.640Z,100494.59
2023-10-11T07:51:31.277Z,100487.28
2023-10-11T07:54:06.745Z,100482.63
2023-10-11T07:56:39.084Z,100486.91
2023-10-11T07:59:09.761Z,100480.38
2023-10-11T08:01:44.985Z,100486.38
2023-10-11T08:04:19.195Z,100491.41
2023-10-11T08:06:47.264Z,100499.16
2023-10-11T08:09:20.641Z,100504.28
2023-10-11T08:11:54.113Z,100500.47
2023-10-11T08:14:26.401Z,100505.59
2023-10-11T08:16:54.539Z,100508.03
2023-10-11T08:19:23.968Z,100510.53
2023-10-11T08:21:56.879Z,100505.00
2023-10-11T08:24:27.061Z,100499.44
2023-10-11T08:26:58.739Z,100498.34
2023-10-11T08:29:32.490Z,100482.91
2023-10-11T08:32:01.291Z,100490.66
2023-10-11T08:34:30.581Z,100472.41
2023-10-11T08:36:58.616Z,100479.91
2023-10-11T08:39:37.037Z,100473.22
2023-10-11T08:42:12.759Z,100472.69
2023-10-11T08:44:45.586Z,100481.00
2023-10-11T08:47:17.210Z,100470.59
2023-10-11T08:49:50.765Z,100488.94
2023-10-11T08:52:23.025Z,100493.19
2023-10-11T08:54:51.531Z,100496.66
2023-10-11T08:57:24.610Z,100494.78
2023-10-11T08:59:53.321Z,100495.59
2023-10-11T09:02:21.789Z,100499.16
2023-10-11T09:05:01.054Z,100493.66
2023-10-11T09:07:39.050Z,100493.16
2023-10-11T09:10:25.183Z,100497.31
2023-10-11T09:12:58.268Z,100483.47
2023-10-11T09:15:42.126Z,100485.59
2023-10-11T09:18:20.558Z,100486.97
2023-10-11T09:21:09.788Z,100488.31
2023-10-11T09:23:38.459Z,100483.22
2023-10-11T09:26:08.959Z,100484.50
2023-10-11T09:28:42.169Z,100484.84
2023-10-11T09:31:16.449Z,100487.75
2023-10-11T09:33:51.678Z,100483.50
2023-10-11T09:36:25.940Z,100477.41
2023-10-11T09:38:56.595Z,100488.50
2023-10-11T09:41:25.756Z,100483.50
2023-10-11T09:43:57.305Z,100470.47
2023-10-11T09:46:31.366Z,100465.41
2023-10-11T09:49:01.124Z,100478.31
2023-10-11T09:51:33.130Z,100485.78
2023-10-11T09:54:08.350Z,100477.84
2023-10-11T09:56:49.728Z,100483.53
2023-10-11T09:59:36.133Z,100485.53
2023-10-11T10:02:09.349Z,100487.69
2023-10-11T10:04:58.998Z,100503.47
2023-10-11T10:07:34.182Z,100494.25
2023-10-11T10:10:02.997Z,100500.34
2023-10-11T10:12:35.303Z,100493.91
2023-10-11T10:15:09.058Z,100491.19
2023-10-11T10:17:38.934Z,100495.50
2023-10-11T10:20:45.253Z,100492.66
2023-10-11T10:23:31.183Z,100492.31
2023-10-11T10:26:39.443Z,100492.00
2023-10-11T10:29:12.900Z,100485.22
2023-10-11T10:32:09.177Z,100483.06
2023-10-11T10:34:43.009Z,100470.19
2023-10-11T10:37:52.764Z,100475.25
2023-10-11T10:40:27.278Z,100461.41
2023-10-11T10:43:25.018Z,100468.28
2023-10-11T10:45:53.371Z,100459.94
2023-10-11T10:48:24.756Z,100456.91
2023-10-11T10:50:57.033Z,100460.19
2023-10-11T10:53:26.189Z,100459.56
2023-10-11T10:55:59.014Z,100456.19
2023-10-11T10:58:28.852Z,100454.78
2023-10-11T11:01:00.507Z,100458.19
2023-10-11T11:03:34.078Z,100457.91
2023-10-11T11:06:03.975Z,100456.06
2023-10-11T11:08:38.298Z,100449.53
2023-10-11T11:11:20.444Z,100450.25
2023-10-11T11:13:49.650Z,100448.06
2023-10-11T11:16:17.641Z,100453.69
2023-10-11T11:18:45.564Z,100444.28
2023-10-11T11:21:21.653Z,100441.91
2023-10-11T11:23:51.928Z,100436.81
2023-10-11T11:28:54.309Z,100430.28
2023-10-11T11:31:39.659Z,100425.28
2023-10-11T11:34:12.354Z,100431.97
2023-10-11T11:36:42.561Z,100426.06
2023-10-11T11:39:26.850Z,100444.84
2023-10-11T11:41:58.966Z,100438.94
2023-10-11T11:44:28.803Z,100437.50
2023-10-11T11:46:57.826Z,100434.28
2023-10-11T11:49:27.972Z,100431.16
2023-10-11T11:51:56.753Z,100422.34
2023-10-11T11:54:29.524Z,100430.66
2023-10-11T11:56:59.655Z,100434.13
2023-10-11T11:59:31.051Z,100418.69
2023-10-11T12:02:00.977Z,100432.91
2023-10-11T12:04:31.543Z,100436.31
2023-10-11T12:06:59.047Z,100423.34
2023-10-11T12:09:35.533Z,100429.53
2023-10-11T12:12:11.342Z,100414.06
2023-10-11T12:14:39.833Z,100421.72
2023-10-11T12:17:10.769Z,100410.41
2023-10-11T12:19:38.977Z,100401.63
2023-10-11T12:22:07.046Z,100396.81
2023-10-11T12:24:36.643Z,100402.13
2023-10-11T12:27:05.854Z,100399.28
2023-10-11T12:29:35.255Z,100404.34
2023-10-11T12:32:03.995Z,100402.97
2023-10-11T12:34:32.869Z,100416.16
2023-10-11T12:37:03.505Z,100415.88
2023-10-11T12:39:34.348Z,100410.22
2023-10-11T12:42:02.280Z,100404.41
2023-10-11T12:44:31.727Z,100403.22
2023-10-11T12:47:01.819Z,100400.22
2023-10-11T12:49:30.083Z,100400.69
2023-10-11T12:52:00.070Z,100390.72
2023-10-11T12:54:28.370Z,100389.56
2023-10-11T12:56:56.130Z,100399.22
2023-10-11T12:59:24.203Z,100396.31
2023-10-11T13:01:53.802Z,100389.63
2023-10-11T13:04:31.505Z,100385.84
2023-10-11T13:07:00.607Z,100397.38
2023-10-11T13:09:29.727Z,100388.16
2023-10-11T13:11:58.718Z,100390.56
2023-10-11T13:14:28.276Z,100380.56
2023-10-11T13:16:59.761Z,100376.59
2023-10-11T13:19:31.885Z,100377.34
2023-10-11T13:22:00.637Z,100377.16
2023-10-11T13:24:29.368Z,100381.47
2023-10-11T13:26:58.662Z,100375.66
2023-10-11T13:29:28.710Z,100382.69
2023-10-11T13:31:58.853Z,100370.69
2023-10-11T13:34:29.804Z,100373.94
2023-10-11T13:36:59.610Z,100372.53
2023-10-11T13:39:39.222Z,100372.88
2023-10-11T13:42:11.674Z,100369.63
2023-10-11T13:44:40.673Z,100378.34
2023-10-11T13:47:10.375Z,100372.50
2023-10-11T13:49:40.463Z,100377.19
2023-10-11T13:52:10.193Z,100376.88
2023-10-11T13:54:43.918Z,100376.41
2023-10-11T13:57:19.341Z,100372.41
2023-10-11T13:59:48.799Z,100372.19
2023-10-11T14:02:34.744Z,100363.25
2023-10-11T14:05:15.494Z,100365.31
2023-10-11T14:07:53.554Z,100361.19
2023-10-11T14:10:28.195Z,100348.81
2023-10-11T14:13:01.691Z,100356.97
2023-10-11T14:15:34.017Z,100349.91
2023-10-11T14:18:03.758Z,100357.28
2023-10-11T14:20:32.395Z,100350.09
2023-10-11T14:23:05.994Z,100342.31
2023-10-11T14:25:35.547Z,100341.63
2023-10-11T14:28:04.830Z,100325.00
2023-10-11T14:30:34.238Z,100330.84
2023-10-11T14:33:02.586Z,100328.22
2023-10-11T14:35:38.866Z,100335.72
2023-10-11T14:38:08.120Z,100328.66
2023-10-11T14:40:36.277Z,100322.91
2023-10-11T14:43:03.996Z,100333.22
2023-10-11T14:45:31.717Z,100321.13
2023-10-11T14:47:59.544Z,100322.75
2023-10-11T14:50:28.243Z,100310.66
2023-10-11T14:52:56.015Z,100309.66
2023-10-11T14:55:25.606Z,100308.31
2023-10-11T14:57:54.827Z,100307.06
2023-10-11T15:00:24.530Z,100306.69
2023-10-11T15:02:53.126Z,100311.00
2023-10-11T15:05:21.327Z,100305.09
2023-10-11T15:07:52.929Z,100315.72
2023-10-11T15:10:24.507Z,100319.91
2023-10-11T15:12:55.526Z,100323.94
2023-10-11T15:15:27.914Z,100322.72
2023-10-11T15:17:57.223Z,100326.00
2023-10-11T15:20:27.691Z,100322.91
2023-10-11T15:22:58.586Z,100316.31
2023-10-11T15:25:26.977Z,100326.84
2023-10-11T15:27:57.097Z,100327.53
2023-10-11T15:30:27.158Z,100328.31
2023-10-11T15:32:56.012Z,100338.72
2023-10-11T15:35:23.960Z,100344.50
2023-10-11T15:37:51.644Z,100343.19
2023-10-11T15:40:21.821Z,100349.19
2023-10-11T15:42:50.241Z,100348.84
2023-10-11T15:45:19.806Z,100348.44
2023-10-11T15:47:49.902Z,100349.06
2023-10-11T15:50:20.173Z,100347.00
2023-10-11T15:52:50.779Z,100342.13
2023-10-11T15:55:21.650Z,100342.66
2023-10-11T15:57:49.280Z,100343.25
2023-10-11T16:00:20.820Z,100347.31
2023-10-11T16:02:50.672Z,100347.94
2023-10-11T16:05:18.674Z,100341.38
2023-10-11T16:07:47.968Z,100342.78
2023-10-11T16:10:15.786Z,100340.53
2023-10-11T16:12:44.148Z,100340.16
2023-10-11T16:15:13.660Z,100346.03
2023-10-11T16:17:42.676Z,100343.69
2023-10-11T16:20:13.244Z,100343.91
2023-10-11T16:22:42.301Z,100350.56
2023-10-11T16:25:13.527Z,100338.28
2023-10-11T16:27:42.899Z,100341.31
2023-10-11T16:30:12.771Z,100338.91
2023-10-11T16:32:40.629Z,100344.66
2023-10-11T16:35:09.412Z,100334.25
2023-10-11T16:37:38.535Z,100340.13
2023-10-11T16:40:07.141Z,100342.44
2023-10-11T16:42:35.546Z,100332.03
2023-10-11T16:45:03.958Z,100327.09
2023-10-11T16:47:37.886Z,100340.03
2023-10-11T16:50:06.752Z,100335.00
2023-10-11T16:52:34.797Z,100330.78
2023-10-11T16:55:03.794Z,100334.66
2023-10-11T16:57:32.519Z,100328.69
2023-10-11T17:00:00.729Z,100327.16
2023-10-11T17:02:30.396Z,100329.28
2023-10-11T17:04:58.151Z,100331.34
2023-10-11T17:07:26.936Z,100328.06
2023-10-11T17:09:55.084Z,100338.19
2023-10-11T17:12:24.085Z,100334.84
2023-10-11T17:14:51.819Z,100328.00
2023-10-11T17:17:20.223Z,100337.28
2023-10-11T17:19:51.129Z,100339.31
2023-10-11T17:22:18.893Z,100342.28
2023-10-11T17:24:49.443Z,100341.63
2023-10-11T17:27:17.762Z,100341.78
2023-10-11T17:29:47.882Z,100342.91
2023-10-11T17:32:16.990Z,100341.38
2023-10-11T17:34:44.986Z,100343.41
2023-10-11T17:37:12.948Z,100343.53
2023-10-11T17:39:40.781Z,100332.97
2023-10-11T17:42:09.507Z,100327.78
2023-10-11T17:44:37.193Z,100331.50
2023-10-11T17:47:06.289Z,100334.31
2023-10-11T17:49:34.712Z,100335.34
2023-10-11T17:52:02.369Z,100338.25
2023-10-11T17:54:30.359Z,100330.31
2023-10-11T17:56:58.025Z,100329.44
2023-10-11T17:59:25.786Z,100333.06
2023-10-11T18:01:53.969Z,100334.03
2023-10-11T18:04:24.038Z,100334.94
2023-10-11T18:06:51.817Z,100343.03
2023-10-11T18:09:19.752Z,100340.47
2023-10-11T18:11:47.475Z,100338.72
2023-10-11T18:14:15.546Z,100339.78
2023-10-11T18:16:43.812Z,100331.00
2023-10-11T18:19:14.877Z,100334.59
2023-10-11T18:21:44.933Z,100331.19
2023-10-11T18:24:15.936Z,100330.50
2023-10-11T18:26:43.956Z,100324.38
2023-10-11T18:29:11.618Z,100320.16
2023-10-11T18:31:39.374Z,100321.22
2023-10-11T18:34:07.129Z,100325.78
2023-10-11T18:36:34.788Z,100322.31
2023-10-11T18:39:04.757Z,100316.16
2023-10-11T18:41:32.438Z,100314.53
2023-10-11T18:44:00.194Z,100314.63
2023-10-11T18:46:28.311Z,100313.78
2023-10-11T18:48:56.177Z,100311.97
2023-10-11T18:51:25.035Z,100305.72
2023-10-11T18:53:53.666Z,100311.09
2023-10-11T18:56:23.272Z,100316.47
2023-10-11T18:58:52.036Z,100310.22
2023-10-11T19:01:19.867Z,100305.81
2023-10-11T19:03:50.678Z,100304.91
2023-10-11T19:06:19.009Z,100297.63
2023-10-11T19:08:46.748Z,100304.84
2023-10-11T19:11:15.401Z,100292.34
2023-10-11T19:13:44.968Z,100303.97
2023-10-11T19:16:25.219Z,100300.41
2023-10-11T19:18:54.377Z,100295.97
2023-10-11T19:21:22.099Z,100303.13
2023-10-11T19:23:49.816Z,100298.66
2023-10-11T19:26:19.711Z,100300.53
2023-10-11T19:28:48.715Z,100299.75
2023-10-11T19:31:17.743Z,100289.97
2023-10-11T19:33:45.562Z,100295.41
2023-10-11T19:36:14.853Z,100293.69
2023-10-11T19:38:42.650Z,100299.19
2023-10-11T19:41:11.742Z,100300.13
2023-10-11T19:43:39.496Z,100299.25
2023-10-11T19:46:09.941Z,100294.00
2023-10-11T19:48:37.634Z,100296.75
2023-10-11T19:51:05.818Z,100293.31
2023-10-11T19:53:33.727Z,100295.25
2023-10-11T19:56:04.494Z,100300.75
2023-10-11T19:58:32.355Z,100302.66
2023-10-11T20:01:00.101Z,100306.38
2023-10-11T20:03:29.154Z,100301.22
2023-10-11T20:05:58.105Z,100303.97
2023-10-11T20:08:25.757Z,100300.53
2023-10-11T20:11:01.237Z,100308.66
2023-10-11T20:13:28.920Z,100299.84
2023-10-11T20:15:56.791Z,100294.72
2023-10-11T20:18:24.706Z,100297.50
2023-10-11T20:20:54.740Z,100292.34
2023-10-11T20:23:22.710Z,100288.03
2023-10-11T20:25:50.415Z,100289.09
2023-10-11T20:28:18.055Z,100291.03
2023-10-11T20:30:46.167Z,100288.50
2023-10-11T20:33:16.946Z,100292.13
2023-10-11T20:35:45.068Z,100288.69
2023-10-11T20:38:17.299Z,100282.53
2023-10-11T20:40:46.536Z,100281.78
2023-10-11T20:43:14.223Z,100292.59
2023-10-11T20:45:42.896Z,100280.16
2023-10-11T20:48:12.706Z,100272.22
2023-10-11T20:50:42.121Z,100277.66
2023-10-11T20:53:10.909Z,100277.66
2023-10-11T20:55:43.951Z,100279.47
2023-10-11T20:58:20.023Z,100283.94
2023-10-11T21:00:50.853Z,100291.09
2023-10-11T21:03:21.464Z,100278.41
2023-10-11T21:05:50.912Z,100288.16
2023-10-11T21:08:20.677Z,100270.13
2023-10-11T21:10:50.697Z,100280.63
2023-10-11T21:13:20.461Z,100280.47
2023-10-11T21:15:48.616Z,100282.84
2023-10-11T21:18:17.383Z,100283.44
2023-10-11T21:20:46.400Z,100281.44
2023-10-11T21:23:16.582Z,100280.97
2023-10-11T21:25:47.748Z,100278.97
2023-10-11T21:28:19.777Z,100275.94
2023-10-11T21:30:47.709Z,100264.94
2023-10-11T21:33:16.349Z,100260.31
2023-10-11T21:35:44.793Z,100271.88
2023-10-11T21:38:13.214Z,100268.13
2023-10-11T21:40:42.124Z,100267.13
2023-10-11T21:43:12.488Z,100258.13
2023-10-11T21:45:42.862Z,100263.44
2023-10-11T21:48:12.016Z,100258.91
2023-10-11T21:50:42.600Z,100258.78
2023-10-11T21:53:11.125Z,100256.91
2023-10-11T21:55:40.106Z,100247.00
2023-10-11T21:58:08.231Z,100252.31
2023-10-11T22:00:48.939Z,100253.06
2023-10-11T22:03:20.111Z,100255.69
2023-10-11T22:05:51.135Z,100246.75
2023-10-11T22:08:19.402Z,100251.13
2023-10-11T22:10:47.596Z,100238.34
2023-10-11T22:13:18.932Z,100240.97
2023-10-11T22:15:47.502Z,100237.25
2023-10-11T22:18:17.306Z,100236.28
2023-10-11T22:20:46.893Z,100230.84
2023-10-11T22:23:15.069Z,100233.53
2023-10-11T22:25:43.112Z,100234.47
2023-10-11T22:28:11.102Z,100232.72
2023-10-11T22:30:39.424Z,100235.44
2023-10-11T22:33:09.809Z,100222.06
2023-10-11T22:35:39.915Z,100225.63
2023-10-11T22:38:09.300Z,100222.06
2023-10-11T22:40:39.666Z,100225.63
2023-10-11T22:43:25.675Z,100233.69
2023-10-11T22:45:57.274Z,100234.59
2023-10-11T22:48:25.548Z,100237.28
2023-10-11T22:50:53.859Z,100244.50
2023-10-11T22:53:24.242Z,100234.66
2023-10-11T22:55:52.532Z,100229.28
2023-10-11T22:58:20.806Z,100238.22
2023-10-11T23:00:50.243Z,100234.59
2023-10-11T23:03:18.889Z,100241.75
2023-10-11T23:05:46.854Z,100238.97
2023-10-11T23:08:15.114Z,100229.09
2023-10-11T23:10:46.864Z,100237.16
2023-10-11T23:13:16.560Z,100230.84
2023-10-11T23:15:52.768Z,100228.09
2023-10-11T23:18:27.688Z,100226.31
2023-10-11T23:20:59.610Z,100221.91
2023-10-11T23:23:42.394Z,100227.28
2023-10-11T23:26:13.787Z,100232.66
2023-10-11T23:28:42.256Z,100229.09
2023-10-11T23:31:11.989Z,100237.09
2023-10-11T23:33:51.354Z,100237.09
2023-10-11T23:36:25.249Z,100241.59
2023-10-11T23:39:02.182Z,100247.03
2023-10-11T23:41:45.917Z,100240.81
2023-10-11T23:44:21.453Z,100245.31
2023-10-11T23:53:21.995Z,100260.53
2023-10-11T23:56:27.290Z,100253.47
2023-10-11T23:59:13.501Z,100243.72
